Time;durP1;ratioP1;P1;durP2;ratioP2;P2;SDS_P1;SDS_P2;PMS_P1;PMS_P2;Temp;Humidity;BMP_temperature;BMP_pressure;BME280_temperature;BME280_humidity;BME280_pressure;Samples;Min_cycle;Max_cycle;Signal;HPM_P1;HPM_P2
2022/08/09 00:01:15;;;;;;;7.43;1.60;;;17.60;77.70;;;;;;5015889;28;20469;-88
2022/08/09 00:03:40;;;;;;;8.60;1.57;;;17.60;77.10;;;;;;5001948;28;20239;-87
2022/08/09 00:06:06;;;;;;;1.37;1.10;;;17.50;78.30;;;;;;5020357;28;20197;-88
2022/08/09 00:08:31;;;;;;;4.23;1.53;;;17.50;79.00;;;;;;5014846;28;20186;-88
2022/08/09 00:11:00;;;;;;;1.80;1.60;;;17.30;79.00;;;;;;4997613;28;20193;-88
2022/08/09 00:13:27;;;;;;;3.70;1.30;;;17.30;79.60;;;;;;5011919;28;20187;-87
2022/08/09 00:15:52;;;;;;;1.30;1.20;;;17.30;79.10;;;;;;5007218;28;20478;-89
2022/08/09 00:18:18;;;;;;;1.37;1.20;;;17.20;79.20;;;;;;5009483;28;20456;-87
2022/08/09 00:20:43;;;;;;;3.63;1.60;;;17.20;79.80;;;;;;5007160;28;23152;-87
2022/08/09 00:23:09;;;;;;;2.83;1.47;;;17.10;80.30;;;;;;5015814;28;20178;-87
2022/08/09 00:25:34;;;;;;;5.70;1.20;;;17.20;81.90;;;;;;5001692;28;20193;-88
2022/08/09 00:28:00;;;;;;;4.40;1.33;;;17.10;81.80;;;;;;5014099;28;20201;-88
2022/08/09 00:30:25;;;;;;;3.43;1.43;;;17.00;82.30;;;;;;5007210;28;20225;-88
2022/08/09 00:32:51;;;;;;;3.93;1.80;;;17.20;83.00;;;;;;5013557;28;20206;-88
2022/08/09 00:35:16;;;;;;;3.80;1.40;;;17.80;83.20;;;;;;5005696;28;20194;-88
2022/08/09 00:37:42;;;;;;;2.60;1.30;;;17.00;83.20;;;;;;5030913;28;20209;-86
2022/08/09 00:40:08;;;;;;;1.73;1.53;;;17.00;83.70;;;;;;5020548;28;20288;-88
2022/08/09 00:42:34;;;;;;;2.07;1.30;;;;;;;;;;5000589;28;20198;-86
2022/08/09 00:45:00;;;;;;;7.63;1.50;;;16.80;83.60;;;;;;5014206;28;20453;-89
2022/08/09 00:47:26;;;;;;;2.73;1.30;;;16.80;85.00;;;;;;5001138;28;21011;-89
2022/08/09 00:49:52;;;;;;;1.37;1.20;;;16.60;85.00;;;;;;5025887;28;20510;-88
2022/08/09 00:52:19;;;;;;;2.43;1.33;;;16.70;85.90;;;;;;5012416;28;20191;-87
2022/08/09 00:54:45;;;;;;;1.57;1.37;;;16.60;86.00;;;;;;5012836;28;20561;-88
2022/08/09 00:57:10;;;;;;;1.53;1.40;;;17.20;87.90;;;;;;5015499;28;20481;-88
2022/08/09 00:59:38;;;;;;;2.83;1.27;;;16.60;87.60;;;;;;5011586;28;20444;-87
2022/08/09 01:02:04;;;;;;;1.60;1.20;;;16.50;89.60;;;;;;5007611;28;20688;-87
2022/08/09 01:05:01;;;;;;;3.53;1.40;;;16.40;90.80;;;;;;5010629;28;20573;-85
2022/08/09 01:07:37;;;;;;;4.00;1.60;;;16.40;92.00;;;;;;5009291;28;20480;-86
2022/08/09 01:10:10;;;;;;;5.33;1.80;;;17.50;92.40;;;;;;5000989;28;20508;-88
2022/08/09 01:12:47;;;;;;;1.27;1.17;;;16.30;91.80;;;;;;5010003;28;20928;-87
2022/08/09 01:15:17;;;;;;;1.37;1.10;;;16.20;93.40;;;;;;5002127;28;20443;-86
2022/08/09 01:17:51;;;;;;;2.87;1.40;;;16.10;93.60;;;;;;4997905;28;20522;-87
2022/08/09 01:20:35;;;;;;;5.83;1.80;;;16.00;94.60;;;;;;5012115;28;21054;-86
2022/08/09 01:23:15;;;;;;;2.78;1.48;;;16.00;95.20;;;;;;5009645;28;20463;-86
2022/08/09 01:26:19;;;;;;;2.28;1.40;;;16.00;95.50;;;;;;5000301;28;20197;-84
2022/08/09 01:28:49;;;;;;;2.40;2.20;;;16.10;95.40;;;;;;5027266;28;20193;-86
2022/08/09 01:31:19;;;;;;;2.37;1.40;;;16.10;96.50;;;;;;4997931;28;20468;-85
2022/08/09 01:33:47;;;;;;;2.57;1.70;;;16.20;95.70;;;;;;5013744;28;20439;-89
2022/08/09 01:36:18;;;;;;;2.53;1.23;;;16.40;94.80;;;;;;5010931;28;21023;-90
2022/08/09 01:38:47;;;;;;;2.33;1.40;;;16.30;95.20;;;;;;5012652;28;20448;-89
2022/08/09 01:41:28;;;;;;;3.00;2.00;;;17.60;95.50;;;;;;5015524;28;20483;-88
2022/08/09 01:43:59;;;;;;;1.70;1.50;;;16.40;94.50;;;;;;5017478;28;20448;-86
2022/08/09 01:46:42;;;;;;;2.80;1.40;;;16.30;94.80;;;;;;4996014;28;20491;-89
2022/08/09 01:49:11;;;;;;;4.33;2.03;;;16.10;95.10;;;;;;5002295;28;20475;-90
2022/08/09 01:51:45;;;;;;;2.30;1.67;;;16.10;95.60;;;;;;5018278;28;20441;-88
2022/08/09 01:54:13;;;;;;;4.03;1.50;;;16.00;95.80;;;;;;5004441;28;20460;-90
2022/08/09 01:56:42;;;;;;;1.20;0.95;;;16.00;96.80;;;;;;5018007;28;20467;-87
2022/08/09 01:59:12;;;;;;;2.10;1.67;;;15.90;98.00;;;;;;4999010;28;20183;-86
2022/08/09 02:01:40;;;;;;;5.60;1.47;;;16.00;97.20;;;;;;4999917;28;20467;-89
2022/08/09 02:04:07;;;;;;;1.77;1.47;;;15.90;97.20;;;;;;5005458;28;20436;-90
2022/08/09 02:09:20;;;;;;;1.40;1.27;;;16.90;97.30;;;;;;5025487;28;20462;-88
2022/08/09 02:11:46;;;;;;;3.40;1.57;;;;;;;;;;5014848;28;20441;-88
2022/08/09 02:14:14;;;;;;;1.40;1.30;;;15.90;96.80;;;;;;5014654;28;20437;-89
2022/08/09 02:16:41;;;;;;;3.70;2.13;;;15.70;98.00;;;;;;5013732;28;20461;-87
2022/08/09 02:19:06;;;;;;;3.20;1.27;;;18.10;99.40;;;;;;5002228;28;20559;-89
2022/08/09 02:21:40;;;;;;;2.37;1.63;;;15.60;98.20;;;;;;5016094;28;21265;-88
2022/08/09 02:24:10;;;;;;;2.77;1.43;;;15.50;99.10;;;;;;5020908;28;20858;-88
2022/08/09 02:26:37;;;;;;;3.33;1.42;;;15.50;99.90;;;;;;4996889;28;20524;-89
2022/08/09 02:29:12;;;;;;;3.05;1.85;;;15.50;99.90;;;;;;5014537;28;20265;-87
2022/08/09 02:31:42;;;;;;;5.73;1.70;;;15.30;99.90;;;;;;5017261;28;20174;-88
2022/08/09 02:34:27;;;;;;;7.35;1.63;;;15.40;99.90;;;;;;5005514;28;20445;-87
2022/08/09 02:36:55;;;;;;;3.95;1.60;;;15.40;99.90;;;;;;5020085;28;20206;-88
2022/08/09 02:39:33;;;;;;;4.15;1.90;;;15.70;99.90;;;;;;5020980;28;20178;-89
2022/08/09 02:42:15;;;;;;;2.90;1.50;;;15.30;99.90;;;;;;5001635;28;20181;-89
2022/08/09 02:44:46;;;;;;;2.78;1.60;;;15.20;99.90;;;;;;5011735;28;20186;-89
2022/08/09 02:47:13;;;;;;;1.83;1.33;;;15.20;99.90;;;;;;4997364;28;20206;-88
2022/08/09 02:49:49;;;;;;;2.83;1.80;;;15.20;99.90;;;;;;5013184;28;20209;-88
2022/08/09 02:52:17;;;;;;;3.25;1.80;;;15.10;99.90;;;;;;5020086;28;20200;-88
2022/08/09 02:54:44;;;;;;;3.05;1.77;;;15.00;99.90;;;;;;5000211;28;20269;-88
2022/08/09 02:57:10;;;;;;;4.55;2.15;;;15.00;99.90;;;;;;5013899;28;20256;-86
2022/08/09 02:59:37;;;;;;;4.05;1.90;;;14.90;99.90;;;;;;5021728;28;21279;-87
2022/08/09 03:02:07;;;;;;;4.13;1.98;;;14.90;99.90;;;;;;5030321;28;20214;-88
2022/08/09 03:04:36;;;;;;;2.75;1.65;;;14.90;99.90;;;;;;5003920;28;20880;-90
2022/08/09 03:07:03;;;;;;;3.58;1.92;;;14.90;99.90;;;;;;5008407;28;20376;-89
2022/08/09 03:09:29;;;;;;;3.30;1.63;;;14.90;99.90;;;;;;5014015;28;20651;-88
2022/08/09 03:11:56;;;;;;;4.90;1.80;;;14.90;99.90;;;;;;4997440;28;20186;-88
2022/08/09 03:14:23;;;;;;;2.72;1.77;;;14.90;99.90;;;;;;5009926;28;20206;-89
2022/08/09 03:16:48;;;;;;;2.60;1.70;;;14.90;99.90;;;;;;5000343;28;20251;-88
2022/08/09 03:19:16;;;;;;;3.80;1.60;;;14.90;99.90;;;;;;5009870;28;20210;-88
2022/08/09 03:21:43;;;;;;;1.75;1.65;;;14.90;99.90;;;;;;4997626;28;20214;-88
2022/08/09 03:24:08;;;;;;;2.72;1.73;;;14.80;99.90;;;;;;5014106;28;20209;-86
2022/08/09 03:26:36;;;;;;;2.33;1.60;;;16.50;99.90;;;;;;5011274;28;20245;-90
2022/08/09 03:29:01;;;;;;;3.45;1.73;;;15.70;99.90;;;;;;5003104;28;20178;-89
2022/08/09 03:31:27;;;;;;;2.47;1.87;;;14.70;99.90;;;;;;5009066;28;20309;-88
2022/08/09 03:33:55;;;;;;;1.70;1.60;;;14.70;99.90;;;;;;4995885;28;20564;-88
2022/08/09 03:36:21;;;;;;;2.55;1.92;;;14.70;99.90;;;;;;5016661;28;20185;-88
2022/08/09 03:38:47;;;;;;;2.35;1.83;;;14.70;99.90;;;;;;5023125;28;20293;-89
2022/08/09 03:41:14;;;;;;;4.20;2.10;;;14.70;99.90;;;;;;5015159;28;20300;-88
2022/08/09 03:43:39;;;;;;;1.60;1.50;;;14.60;99.90;;;;;;5004247;28;20268;-88
2022/08/09 03:46:05;;;;;;;2.20;1.50;;;14.60;99.90;;;;;;5006570;28;20209;-89
2022/08/09 03:48:32;;;;;;;2.30;2.10;;;14.60;99.90;;;;;;4999112;28;20262;-86
2022/08/09 03:50:59;;;;;;;3.22;2.10;;;14.60;99.90;;;;;;4997983;28;20813;-86
2022/08/09 03:53:25;;;;;;;2.33;1.85;;;14.70;99.90;;;;;;5015304;28;20356;-88
2022/08/09 03:55:51;;;;;;;2.17;1.73;;;14.70;99.90;;;;;;5015020;28;20188;-88
2022/08/09 03:58:18;;;;;;;6.83;2.03;;;14.70;99.90;;;;;;5010083;28;20205;-88
2022/08/09 04:00:45;;;;;;;4.95;2.20;;;14.60;99.90;;;;;;5012310;28;20821;-88
2022/08/09 04:03:11;;;;;;;2.67;1.50;;;14.60;99.90;;;;;;4995117;28;20182;-87
2022/08/09 04:05:37;;;;;;;3.78;2.13;;;14.60;99.90;;;;;;5009424;28;21080;-92
2022/08/09 04:08:03;;;;;;;2.17;1.80;;;14.60;99.90;;;;;;5013105;28;20272;-84
2022/08/09 04:10:28;;;;;;;2.10;1.90;;;14.70;99.90;;;;;;4997829;28;20213;-88
2022/08/09 04:12:54;;;;;;;2.60;1.47;;;14.60;99.90;;;;;;5014696;28;20182;-88
2022/08/09 04:15:22;;;;;;;3.33;2.00;;;14.70;99.90;;;;;;4990316;28;20284;-85
2022/08/09 04:17:48;;;;;;;2.15;1.80;;;14.80;99.90;;;;;;5006265;28;21218;-86
2022/08/09 04:20:14;;;;;;;2.10;1.70;;;14.80;99.90;;;;;;5000525;28;20209;-85
2022/08/09 04:22:41;;;;;;;4.80;2.20;;;14.70;99.90;;;;;;5000496;28;20436;-90
2022/08/09 04:25:07;;;;;;;1.92;1.73;;;14.70;99.90;;;;;;5013932;28;20311;-88
2022/08/09 04:27:34;;;;;;;2.25;1.45;;;14.80;99.90;;;;;;5009964;28;20206;-89
2022/08/09 04:30:00;;;;;;;2.80;1.95;;;14.90;99.90;;;;;;5011832;28;21662;-90
2022/08/09 04:32:27;;;;;;;2.90;1.70;;;15.30;99.90;;;;;;5020446;28;20162;-87
2022/08/09 04:34:52;;;;;;;2.13;1.55;;;16.10;99.90;;;;;;5015719;28;20218;-89
2022/08/09 04:37:18;;;;;;;5.10;1.47;;;17.00;99.90;;;;;;4998070;28;20248;-89
2022/08/09 04:39:43;;;;;;;6.43;2.53;;;18.20;99.90;;;;;;5005097;28;20213;-85
2022/08/09 04:42:09;;;;;;;1.80;1.40;;;19.40;98.70;;;;;;5000998;28;20268;-90
2022/08/09 04:44:35;;;;;;;2.30;1.97;;;20.70;95.70;;;;;;5008634;28;21275;-90
2022/08/09 04:47:01;;;;;;;4.17;1.90;;;22.00;91.40;;;;;;4993752;28;20745;-92
2022/08/09 04:49:32;;;;;;;3.33;1.77;;;23.80;83.70;;;;;;4987755;28;20627;-89
2022/08/09 04:51:58;;;;;;;2.50;1.83;;;23.50;74.40;;;;;;5003221;28;20178;-90
2022/08/09 04:54:23;;;;;;;3.93;2.00;;;24.50;73.40;;;;;;4996773;28;20445;-90
2022/08/09 04:56:49;;;;;;;2.90;1.87;;;25.60;68.10;;;;;;4985471;28;20461;-89
2022/08/09 04:59:14;;;;;;;2.30;1.80;;;26.80;63.20;;;;;;4986580;28;20193;-88
2022/08/09 05:01:40;;;;;;;4.57;2.23;;;28.00;59.30;;;;;;5006262;28;20267;-90
2022/08/09 05:04:05;;;;;;;3.67;2.00;;;29.20;55.60;;;;;;4991652;28;20189;-91
2022/08/09 05:06:31;;;;;;;5.30;2.27;;;30.30;52.40;;;;;;4982587;28;20349;-90
2022/08/09 05:08:57;;;;;;;4.10;1.93;;;31.30;50.70;;;;;;4993624;28;20700;-90
2022/08/09 05:11:22;;;;;;;6.43;3.13;;;31.60;49.60;;;;;;4992255;28;20184;-89
2022/08/09 05:13:48;;;;;;;2.10;1.63;;;;;;;;;;5008198;28;20654;-90
2022/08/09 05:16:14;;;;;;;5.00;2.70;;;;;;;;;;5008059;28;20183;-90
2022/08/09 05:18:40;;;;;;;3.10;2.60;;;;;;;;;;5010796;28;20434;-89
2022/08/09 05:21:06;;;;;;;5.67;3.37;;;;;;;;;;4998620;28;20550;-90
2022/08/09 05:23:32;;;;;;;3.77;3.47;;;34.80;40.80;;;;;;5014641;28;20434;-89
2022/08/09 05:25:58;;;;;;;3.90;3.40;;;;;;;;;;5010853;28;20448;-90
2022/08/09 05:28:24;;;;;;;5.10;4.17;;;;;;;;;;5004423;28;20202;-90
2022/08/09 05:30:50;;;;;;;5.03;4.37;;;;;;;;;;4996055;28;20543;-91
2022/08/09 05:33:15;;;;;;;4.60;4.30;;;;;;;;;;5009443;28;20566;-91
2022/08/09 05:35:41;;;;;;;6.80;6.30;;;;;;;;;;5001529;28;20441;-89
2022/08/09 05:38:07;;;;;;;6.50;6.10;;;;;;;;;;5014405;28;20460;-91
2022/08/09 05:40:33;;;;;;;8.33;7.40;;;;;;;;;;5005824;28;20478;-92
2022/08/09 05:42:59;;;;;;;5.63;4.63;;;40.60;29.00;;;;;;4990012;28;20441;-90
2022/08/09 05:45:25;;;;;;;9.77;9.23;;;;;;;;;;5008256;28;20442;-91
2022/08/09 05:47:50;;;;;;;12.47;11.67;;;40.90;27.60;;;;;;4993887;28;20914;-91
2022/08/09 05:50:16;;;;;;;5.40;4.90;;;40.40;28.30;;;;;;4991509;28;20557;-91
2022/08/09 05:52:43;;;;;;;8.90;8.40;;;41.40;27.40;;;;;;5001258;28;20205;-91
2022/08/09 05:55:10;;;;;;;9.73;8.90;;;41.90;27.10;;;;;;5003577;28;20652;-91
2022/08/09 05:57:36;;;;;;;9.47;8.77;;;42.20;26.60;;;;;;4993282;28;20740;-91
2022/08/09 06:00:05;;;;;;;9.33;8.83;;;42.80;26.20;;;;;;4995812;28;20560;-91
2022/08/09 06:02:31;;;;;;;9.43;8.57;;;;;;;;;;5005615;28;20432;-90
2022/08/09 06:04:57;;;;;;;10.90;9.60;;;;;;;;;;5025385;28;20465;-89
2022/08/09 06:07:23;;;;;;;10.60;9.63;;;;;;;;;;4999778;28;21099;-90
2022/08/09 06:09:49;;;;;;;10.03;9.63;;;;;;;;;;4992940;28;20570;-91
2022/08/09 06:12:15;;;;;;;10.07;9.27;;;;;;;;;;5002689;28;20428;-89
2022/08/09 06:14:41;;;;;;;10.20;9.70;;;;;;;;;;5008204;28;20447;-90
2022/08/09 06:17:07;;;;;;;10.50;10.00;;;;;;;;;;5013782;28;20449;-89
2022/08/09 06:19:33;;;;;;;10.70;9.93;;;;;;;;;;5014448;28;20470;-90
2022/08/09 06:21:59;;;;;;;11.53;10.43;;;;;;;;;;4997018;28;20464;-90
2022/08/09 06:24:26;;;;;;;10.70;9.90;;;42.80;24.70;;;;;;4997953;28;20514;-91
2022/08/09 06:26:52;;;;;;;11.80;11.00;;;;;;;;;;5001552;28;20463;-90
2022/08/09 06:29:18;;;;;;;10.60;9.90;;;;;;;;;;5004781;28;20460;-89
2022/08/09 06:31:44;;;;;;;10.87;9.60;;;;;;;;;;4988391;28;20956;-91
2022/08/09 06:34:10;;;;;;;9.90;9.30;;;;;;;;;;5006727;28;20489;-91
2022/08/09 06:36:36;;;;;;;12.20;10.60;;;;;;;;;;5010825;28;20551;-91
2022/08/09 06:39:02;;;;;;;13.50;12.70;;;44.40;23.30;;;;;;5020868;28;20905;-88
2022/08/09 06:41:28;;;;;;;10.97;10.17;;;44.40;23.80;;;;;;5022222;28;20464;-89
2022/08/09 06:43:54;;;;;;;11.17;10.50;;;;;;;;;;4991753;28;20437;-90
2022/08/09 06:46:20;;;;;;;11.00;10.50;;;;;;;;;;5004410;28;21175;-89
2022/08/09 06:48:46;;;;;;;10.73;10.13;;;;;;;;;;5011691;28;20904;-88
2022/08/09 06:51:12;;;;;;;14.30;9.37;;;43.00;24.30;;;;;;5009909;28;20528;-90
2022/08/09 06:53:38;;;;;;;10.20;9.53;;;42.80;25.10;;;;;;4997515;28;20581;-89
2022/08/09 06:56:04;;;;;;;10.23;9.30;;;42.40;24.90;;;;;;4992189;28;20264;-90
2022/08/09 06:58:30;;;;;;;11.07;10.27;;;;;;;;;;4986492;28;20471;-90
2022/08/09 07:00:55;;;;;;;9.77;9.17;;;41.20;25.40;;;;;;4990056;28;20570;-90
2022/08/09 07:03:23;;;;;;;9.60;9.10;;;39.40;26.20;;;;;;4994846;28;22751;-90
2022/08/09 07:05:49;;;;;;;13.40;9.80;;;39.40;26.60;;;;;;5009437;28;20192;-90
2022/08/09 07:08:15;;;;;;;9.27;8.67;;;;;;;;;;5003914;28;20490;-89
2022/08/09 07:10:41;;;;;;;9.43;8.87;;;;;;;;;;4982211;28;20523;-90
2022/08/09 07:13:07;;;;;;;10.67;9.67;;;38.60;27.70;;;;;;4991115;28;20455;-91
2022/08/09 07:15:32;;;;;;;10.77;10.10;;;41.20;28.20;;;;;;4987799;28;20440;-90
2022/08/09 07:17:58;;;;;;;9.97;9.27;;;;;;;;;;5001687;28;20209;-91
2022/08/09 07:20:24;;;;;;;9.80;9.27;;;;;;;;;;4988353;28;20221;-89
2022/08/09 07:22:51;;;;;;;11.57;10.17;;;43.10;25.50;;;;;;5001593;28;20996;-89
2022/08/09 07:25:17;;;;;;;11.07;10.40;;;;;;;;;;5004845;28;20466;-90
2022/08/09 07:27:44;;;;;;;11.37;10.57;;;43.90;24.90;;;;;;5002996;28;20473;-89
2022/08/09 07:30:13;;;;;;;12.27;11.57;;;44.50;24.90;;;;;;4990179;28;21069;-89
2022/08/09 07:32:40;;;;;;;13.43;12.53;;;44.70;24.20;;;;;;4995533;28;22581;-91
2022/08/09 07:35:08;;;;;;;13.03;12.17;;;44.60;23.80;;;;;;5021895;28;20471;-90
2022/08/09 07:37:34;;;;;;;13.40;12.53;;;;;;;;;;5037347;28;20468;-91
2022/08/09 07:40:00;;;;;;;12.60;11.80;;;;;;;;;;5002247;28;20441;-90
2022/08/09 07:42:26;;;;;;;15.63;14.57;;;;;;;;;;5007453;28;20550;-90
2022/08/09 07:44:52;;;;;;;12.97;11.90;;;;;;;;;;5024310;28;20541;-91
2022/08/09 07:47:18;;;;;;;11.90;11.20;;;;;;;;;;5001813;28;20463;-92
2022/08/09 07:49:44;;;;;;;11.87;11.37;;;;;;;;;;4995724;28;20432;-91
2022/08/09 07:52:10;;;;;;;11.70;11.03;;;;;;;;;;5007056;28;20448;-90
2022/08/09 07:54:37;;;;;;;13.47;12.50;;;;;;;;;;5014968;28;20485;-91
2022/08/09 07:57:03;;;;;;;13.27;12.33;;;;;;;;;;5004054;28;20247;-91
2022/08/09 07:59:29;;;;;;;13.03;12.13;;;;;;;;;;5009154;28;20984;-93
2022/08/09 08:01:55;;;;;;;12.43;11.57;;;;;;;;;;5015891;28;20996;-92
2022/08/09 08:04:22;;;;;;;12.00;11.13;;;42.50;25.20;;;;;;5017148;28;20454;-92
2022/08/09 08:06:48;;;;;;;11.43;10.93;;;42.60;25.60;;;;;;5007799;28;20464;-91
2022/08/09 08:09:15;;;;;;;12.77;12.17;;;;;;;;;;5004354;28;20436;-91
2022/08/09 08:11:42;;;;;;;13.20;12.40;;;44.50;24.40;;;;;;5012186;28;20873;-91
2022/08/09 08:14:10;;;;;;;13.43;12.40;;;45.50;25.60;;;;;;5016064;28;20451;-93
2022/08/09 08:16:36;;;;;;;12.47;11.87;;;;;;;;;;5011587;28;20452;-91
2022/08/09 08:19:02;;;;;;;12.77;11.77;;;;;;;;;;5001722;28;21373;-91
2022/08/09 08:21:29;;;;;;;13.30;12.40;;;;;;;;;;5006279;28;20623;-91
2022/08/09 08:23:55;;;;;;;12.47;11.70;;;;;;;;;;5001158;28;20443;-91
2022/08/09 08:26:21;;;;;;;14.10;12.87;;;;;;;;;;5009177;28;20429;-92
2022/08/09 08:28:47;;;;;;;14.83;14.03;;;;;;;;;;5008498;28;20429;-92
2022/08/09 08:31:13;;;;;;;14.83;14.07;;;;;;;;;;5005666;28;20960;-93
2022/08/09 08:33:39;;;;;;;15.63;14.83;;;44.50;24.10;;;;;;5019472;28;20472;-91
2022/08/09 08:36:05;;;;;;;14.97;13.87;;;;;;;;;;5019162;28;20479;-91
2022/08/09 08:38:31;;;;;;;14.80;13.63;;;;;;;;;;5008494;28;21009;-92
2022/08/09 08:40:58;;;;;;;14.23;12.73;;;43.50;24.20;;;;;;5002250;28;20460;-93
2022/08/09 08:43:25;;;;;;;13.60;12.80;;;44.50;24.50;;;;;;5009604;28;20549;-92
2022/08/09 08:45:53;;;;;;;14.03;13.20;;;45.20;24.20;;;;;;5019807;28;20440;-92
2022/08/09 08:48:19;;;;;;;13.73;13.03;;;;;;;;;;5025850;28;21002;-92
2022/08/09 08:50:46;;;;;;;14.93;14.03;;;45.40;23.50;;;;;;5019618;28;20472;-91
2022/08/09 08:53:13;;;;;;;14.77;14.00;;;44.80;24.00;;;;;;5036483;28;20431;-92
2022/08/09 08:55:42;;;;;;;16.03;15.30;;;44.50;24.30;;;;;;5031482;28;20437;-93
2022/08/09 08:58:11;;;;;;;16.60;15.70;;;44.50;24.80;;;;;;5017504;28;20468;-92
2022/08/09 09:00:37;;;;;;;15.33;14.33;;;;;;;;;;5023577;28;20560;-93
2022/08/09 09:03:04;;;;;;;14.70;13.80;;;42.40;25.60;;;;;;5040240;28;20423;-94
2022/08/09 09:05:30;;;;;;;16.23;14.97;;;;;;;;;;5036826;28;20449;-94
2022/08/09 09:07:57;;;;;;;14.60;13.80;;;40.90;26.10;;;;;;5029872;28;20476;-93
2022/08/09 09:10:25;;;;;;;12.73;11.83;;;40.20;26.60;;;;;;5046186;28;20429;-94
2022/08/09 09:12:51;;;;;;;12.97;12.17;;;;;;;;;;5017271;28;20454;-94
2022/08/09 09:15:17;;;;;;;12.80;11.93;;;41.10;26.60;;;;;;5008087;28;20429;-92
2022/08/09 09:17:43;;;;;;;13.80;12.60;;;;;;;;;;5020268;28;20466;-93
2022/08/09 09:20:10;;;;;;;12.50;11.90;;;42.30;26.00;;;;;;5027816;28;20273;-92
2022/08/09 09:23:02;;;;;;;12.20;11.40;;;42.30;26.40;;;;;;5026973;28;20484;-92
2022/08/09 09:25:40;;;;;;;14.27;13.47;;;42.70;26.30;;;;;;5005103;28;20905;-92
2022/08/09 09:28:07;;;;;;;14.47;13.67;;;43.30;26.10;;;;;;5007547;28;20472;-93
2022/08/09 09:30:54;;;;;;;13.97;12.80;;;42.60;25.80;;;;;;5023763;28;20520;-92
2022/08/09 09:33:20;;;;;;;13.73;13.00;;;;;;;;;;5007516;28;20427;-92
2022/08/09 09:35:56;;;;;;;13.30;12.73;;;40.90;25.40;;;;;;5015122;28;20446;-92
2022/08/09 09:38:23;;;;;;;14.03;12.83;;;;;;;;;;5016158;28;22018;-94
2022/08/09 09:40:49;;;;;;;13.03;12.00;;;;;;;;;;5030931;28;20520;-90
2022/08/09 09:43:19;;;;;;;12.50;11.53;;;39.10;27.20;;;;;;5015502;28;20431;-92
2022/08/09 09:45:53;;;;;;;11.33;10.63;;;38.40;28.00;;;;;;5021581;28;20436;-91
2022/08/09 09:48:20;;;;;;;11.83;11.27;;;39.50;27.90;;;;;;5020064;28;20531;-92
2022/08/09 09:50:48;;;;;;;12.67;11.63;;;40.30;27.10;;;;;;5024130;28;20471;-92
2022/08/09 09:53:18;;;;;;;12.13;11.37;;;40.60;26.50;;;;;;5006187;28;20440;-92
2022/08/09 09:55:58;;;;;;;11.50;10.90;;;40.50;27.10;;;;;;5020255;28;20440;-93
2022/08/09 09:58:25;;;;;;;12.00;11.50;;;39.90;27.20;;;;;;5007001;28;20463;-92
2022/08/09 10:00:55;;;;;;;11.93;11.33;;;40.90;28.40;;;;;;5025130;28;20554;-92
2022/08/09 10:03:53;;;;;;;11.97;11.17;;;40.40;26.20;;;;;;5029028;28;20433;-92
2022/08/09 10:06:19;;;;;;;11.57;10.90;;;38.40;26.80;;;;;;5012504;28;20440;-93
2022/08/09 10:09:58;;;;;;;;;;;;;;;;;;;;;
2022/08/09 10:16:01;;;;;;;11.20;10.23;;;38.50;26.80;;;;;;4897588;29;20629;-92
2022/08/09 10:18:27;;;;;;;11.33;10.40;;;;;;;;;;4960478;28;20500;-91
2022/08/09 10:20:54;;;;;;;10.60;10.00;;;;;;;;;;4975758;28;20484;-93
2022/08/09 10:23:28;;;;;;;10.73;9.93;;;;;;;;;;5015030;28;20413;-95
2022/08/09 10:25:54;;;;;;;10.53;9.83;;;35.40;26.70;;;;;;5025071;28;20431;-93
2022/08/09 10:28:20;;;;;;;9.03;8.60;;;;;;;;;;5027515;28;20453;-93
2022/08/09 10:30:49;;;;;;;8.03;7.70;;;33.50;29.60;;;;;;5019755;28;20448;-92
2022/08/09 10:33:22;;;;;;;6.60;6.20;;;31.90;30.50;;;;;;4997804;28;20477;-94
2022/08/09 10:35:52;;;;;;;6.50;6.20;;;31.10;31.60;;;;;;5024670;28;20472;-93
2022/08/09 10:38:20;;;;;;;6.60;6.00;;;30.50;32.30;;;;;;5018160;28;20528;-94
2022/08/09 11:42:54;;;;;;;5.50;4.13;;;30.30;34.00;;;;;;5051250;28;20532;-90
2022/08/09 11:45:20;;;;;;;5.53;4.50;;;;;;;;;;5038247;28;20428;-91
2022/08/09 11:47:47;;;;;;;5.13;4.73;;;30.20;34.60;;;;;;5050863;28;20563;-92
2022/08/09 11:50:13;;;;;;;3.80;3.50;;;;;;;;;;5087420;28;20422;-91
2022/08/09 11:52:57;;;;;;;4.30;4.10;;;30.10;34.60;;;;;;5084485;28;20521;-90
2022/08/09 11:55:39;;;;;;;4.47;4.07;;;30.10;36.60;;;;;;5066529;28;20447;-91
2022/08/09 11:58:17;;;;;;;3.90;3.50;;;30.80;34.30;;;;;;5056815;28;20451;-90
2022/08/09 12:00:55;;;;;;;4.70;4.30;;;31.10;34.40;;;;;;5067958;28;20471;-92
2022/08/09 12:03:23;;;;;;;4.77;4.37;;;31.30;33.20;;;;;;5051427;28;20453;-91
2022/08/09 12:05:58;;;;;;;3.77;3.47;;;31.20;33.30;;;;;;5060412;28;20427;-91
2022/08/09 12:08:25;;;;;;;6.23;4.73;;;31.10;33.20;;;;;;5035528;28;20451;-89
2022/08/09 12:10:54;;;;;;;4.80;4.50;;;31.00;33.40;;;;;;5070653;28;20438;-90
2022/08/09 12:13:39;;;;;;;7.17;5.27;;;30.90;33.70;;;;;;5069723;28;20415;-88
2022/08/09 12:16:14;;;;;;;6.73;5.03;;;30.80;33.80;;;;;;5067830;28;20471;-92
2022/08/09 12:18:44;;;;;;;4.97;4.17;;;30.80;33.60;;;;;;5071755;28;20462;-89
2022/08/09 12:21:10;;;;;;;4.60;4.20;;;;;;;;;;5048392;28;20474;-90
2022/08/09 12:23:45;;;;;;;4.80;4.40;;;30.70;32.90;;;;;;5077433;28;20495;-91
2022/08/09 12:26:14;;;;;;;5.80;4.10;;;30.50;32.30;;;;;;5080944;28;20466;-90
2022/08/09 12:28:47;;;;;;;9.40;4.40;;;30.30;32.40;;;;;;5072727;28;20423;-89
2022/08/09 12:31:22;;;;;;;12.77;4.67;;;32.00;34.10;;;;;;5063917;28;20451;-91
2022/08/09 12:33:52;;;;;;;3.50;3.27;;;30.30;33.30;;;;;;5079005;28;20493;-92
2022/08/09 12:36:59;;;;;;;5.33;4.00;;;30.40;32.40;;;;;;5067445;28;20433;-91
2022/08/09 12:39:25;;;;;;;5.37;4.37;;;;;;;;;;5079412;28;20451;-90
2022/08/09 12:42:08;;;;;;;5.73;4.50;;;30.80;32.40;;;;;;5058479;28;20497;-91
2022/08/09 12:44:43;;;;;;;4.77;4.33;;;30.60;32.50;;;;;;5072927;28;20966;-93
2022/08/09 12:47:09;;;;;;;4.53;4.13;;;;;;;;;;5067686;28;21478;-91
2022/08/09 12:49:37;;;;;;;5.17;4.23;;;30.70;31.40;;;;;;5066792;28;20439;-92
2022/08/09 12:52:04;;;;;;;4.90;4.50;;;30.60;32.20;;;;;;5071498;28;20424;-92
2022/08/09 12:54:53;;;;;;;4.53;4.33;;;30.70;31.90;;;;;;5069946;28;20466;-89
2022/08/09 12:57:35;;;;;;;5.10;4.80;;;30.70;31.70;;;;;;5068986;28;20462;-92
2022/08/09 13:00:17;;;;;;;5.70;4.40;;;30.80;31.40;;;;;;5066531;28;20438;-92
2022/08/09 13:02:59;;;;;;;7.10;4.80;;;30.70;31.20;;;;;;5070172;28;20430;-91
2022/08/09 13:05:38;;;;;;;5.77;4.80;;;30.60;31.40;;;;;;5063855;28;21832;-92
2022/08/09 13:08:24;;;;;;;5.10;4.60;;;30.70;31.30;;;;;;5070451;28;20458;-91
2022/08/09 13:10:53;;;;;;;4.43;4.03;;;30.80;31.10;;;;;;5058349;28;20449;-90
2022/08/09 13:13:41;;;;;;;10.37;4.20;;;30.90;31.70;;;;;;5068952;28;21422;-94
2022/08/09 13:16:11;;;;;;;4.10;3.70;;;30.80;31.00;;;;;;5064213;28;20805;-91
2022/08/09 13:18:53;;;;;;;4.13;3.77;;;30.60;31.30;;;;;;5053691;28;20427;-92
2022/08/09 13:21:31;;;;;;;3.57;3.27;;;30.50;31.50;;;;;;5052588;28;20462;-93
2022/08/09 13:24:00;;;;;;;3.63;3.33;;;30.70;31.40;;;;;;5069161;28;20798;-91
2022/08/09 13:26:56;;;;;;;9.83;4.50;;;30.70;30.50;;;;;;5082449;28;20443;-92
2022/08/09 13:29:24;;;;;;;4.93;4.43;;;;;;;;;;5058700;28;20435;-92
2022/08/09 13:32:21;;;;;;;10.10;4.17;;;31.00;30.00;;;;;;5069852;28;20522;-93
2022/08/09 13:34:47;;;;;;;6.60;3.90;;;;;;;;;;5041370;28;20473;-90
2022/08/09 13:37:14;;;;;;;9.60;4.33;;;;;;;;;;5061211;28;20447;-91
2022/08/09 13:39:40;;;;;;;4.43;4.13;;;;;;;;;;5063861;28;20460;-93
2022/08/09 13:42:06;;;;;;;4.63;4.20;;;;;;;;;;5071583;28;20474;-92
2022/08/09 13:44:32;;;;;;;4.40;4.00;;;30.70;30.70;;;;;;5081047;28;20448;-92
2022/08/09 13:47:02;;;;;;;4.50;4.20;;;30.80;31.20;;;;;;5070462;28;20455;-91
2022/08/09 13:49:28;;;;;;;6.63;5.00;;;;;;;;;;5073482;28;20515;-92
2022/08/09 13:51:54;;;;;;;4.57;4.17;;;;;;;;;;5076241;28;20442;-93
2022/08/09 13:54:23;;;;;;;3.87;3.67;;;30.80;31.10;;;;;;5061573;28;20469;-93
2022/08/09 13:56:51;;;;;;;5.73;3.60;;;30.90;31.40;;;;;;5060583;28;20493;-92
2022/08/09 13:59:16;;;;;;;8.50;4.20;;;;;;;;;;5046977;28;20479;-92
2022/08/09 14:01:43;;;;;;;4.30;3.93;;;;;;;;;;5072748;28;20466;-91
2022/08/09 14:04:16;;;;;;;4.30;4.10;;;30.80;31.10;;;;;;5072048;28;20804;-92
2022/08/09 14:06:43;;;;;;;4.00;3.70;;;;;;;;;;5060089;28;20442;-91
2022/08/09 14:09:09;;;;;;;4.33;4.10;;;;;;;;;;5067474;28;20580;-91
2022/08/09 14:11:36;;;;;;;4.37;4.07;;;;;;;;;;5078792;28;20451;-90
2022/08/09 14:14:01;;;;;;;4.40;4.10;;;31.10;30.00;;;;;;5058599;28;20438;-89
2022/08/09 14:16:27;;;;;;;4.87;4.47;;;31.20;30.80;;;;;;5043112;28;20431;-91
2022/08/09 14:18:54;;;;;;;4.60;4.30;;;;;;;;;;5048841;28;20177;-89
2022/08/09 14:21:22;;;;;;;6.30;4.47;;;31.10;30.10;;;;;;5061477;28;20205;-88
2022/08/09 14:23:51;;;;;;;4.07;3.77;;;31.10;30.20;;;;;;5052281;28;20963;-91
2022/08/09 14:26:17;;;;;;;3.80;3.37;;;30.70;30.00;;;;;;5056715;28;20593;-90
2022/08/09 14:28:43;;;;;;;4.67;4.10;;;32.00;31.30;;;;;;5047208;28;20427;-88